Branch, Louisiana
Current Conditions -  °F | °C
As of 3:35 PM on Saturday 20 Dec 2014 (Local Time) from KOPL Reporting Station
Overcast Overcast  
Wind Chill: 51°   Ceiling: 1600
Heat Index: 51°   Visibility: 10mi
Dew Point: 46°   Wind: 10mph
Humidity: 82%   Direction: 20°NNE
Pressure: 30.14"   Gusts: NA
Location:  30.35°N, 92.27°W
Report Text: KOPL 202135Z AUTO 02009KT 10SM OVC016 11/08 A3014 RMK AO2 T01080078
Loading
Personal Weather Stations






























Interactive Weather Map New forecast layout! Learn more

10-Day Weather Forecast

Advertisements
Track Severe Weather on mobile